AirNav   ATP
 
 1244 users online  

7N4 Honey Acres Airport
Clinton, Michigan, USA

GOING TO CLINTON?


FAA INFORMATION EFFECTIVE 01 FEBRUARY 2018

Location

FAA Identifier: 7N4
Lat/Long: 42-04-40.1510N / 083-59-09.7950W
42-04.669183N / 083-59.163250W
42.0778197 / -83.9860542
(estimated)
Elevation: 820 ft. / 250 m (estimated)
Variation: 04W (1985)
From city: 1 mile W of CLINTON, MI
Time zone: UTC -5 (UTC -4 during Daylight Saving Time)
Zip code: 49236

Airport Operations

Airport use: Open to the public
Activation date: 07/1990
Control tower: no
ARTCC: CLEVELAND CENTER
FSS: LANSING FLIGHT SERVICE STATION
NOTAMs facility: LAN (NOTAM-D service available)
Attendance: IREG
Pattern altitude: 1820 ft. MSL
Wind indicator: yes
Segmented circle: no

Airport Communications

CTAF: 122.9
WX ASOS at ADG (13 nm S): 118.375 (517-265-9089)
WX ASOS at ARB (14 nm NE): PHONE 734-668-7173

Nearby radio navigation aids

VOR radial/distance  VOR name  Freq  Var
CRLr277/23.6CARLETON VOR/DME115.7003W
JXNr122/23.7JACKSON VOR/DME109.6005W
SVMr224/26.4SALEM VORTAC114.3003W
DXOr260/28.7DETROIT VOR/DME113.4006W
LFDr093/34.7LITCHFIELD VOR/DME111.2005W

 
NDB name  Hdg/Dist  Freq  Var  ID
TECUMSEH307/5.223906WTCU - -.-. ..-
ADRIAN024/13.127806WADG .- -.. --.
GROSSE ILE275/37.141907WRYS .-. -.-- ...

Airport Services

Parking: tiedowns

Runway Information

Runway 18/36

Dimensions: 3800 x 90 ft. / 1158 x 27 m
Surface: turf, in good condition
Runway edge markings: RY 18/36 THLDS & DSPLCD THLDS MKD WITH 3 FT YELLOW CONES.
RUNWAY 18  RUNWAY 36
Latitude: 42-04.978333N42-04.353333N
Longitude: 083-59.173333W083-59.148333W
Traffic pattern: leftleft
Displaced threshold: 600 ft.600 ft.
Obstructions: 40 ft. trees, 106 ft. left of centerline32 ft. bldg, lighted, 129 ft. from runway, 55 ft. left of centerline, 4:1 slope to clear
APCH RATIO 8:1 AT DSPLCD THLD OVER 80 FT TREE, 714 FT DSTC, 125 L.

Airport Ownership and Management from official FAA records

Ownership: Privately-owned
Owner: RAYMOND L. KUSSMAUL
12447 MATTHEWS HWY
CLINTON, MI 49236
Phone 517-902-3270
Manager: RAYMOND L. KUSSMAUL
12447 MATTHEWS HWY
CLINTON, MI 49236
Phone 517-902-3270

Airport Operational Statistics

Aircraft based on the field: 4
Single engine airplanes: 4
    
Aircraft operations: avg 38/month *
50% transient general aviation
50% local general aviation
* for 12-month period ending 31 December 2014

Additional Remarks

BUILDING & HGR IN PRIMARY SFC.
RWY 36, +18 FT PLINE 430 FT FROM THLD MARKED WITH ORANGE BALLS.
RY SOFT DURG SPRING THAW AND AFT HEAVY RAINS.
FOR CD CTC DETROIT APCH AT 800-499-8181.

Instrument Procedures

There are no published instrument procedures at 7N4.

Some nearby airports with instrument procedures:

3TE - Al Meyers Airport (4 nm SE)
KADG - Lenawee County Airport (13 nm S)
KARB - Ann Arbor Municipal Airport (14 nm NE)
KYIP - Willow Run Airport (22 nm NE)
KJXN - Jackson County Airport-Reynolds Field (24 nm NW)
 
Loc | Ops | Rwys | IFR | FBO | Links
Com | Nav | Svcs | Stats | Notes

AirNav Hotels Sweepstakes
 
Area around 7N4 (Honey Acres Airport)
 
Road maps at: MapQuest Bing Google
 
Aerial photo
WARNING: Photo may not be current or correct
Aerial photo of 7N4 (Honey Acres Airport)
Credit: M. Coleman - LocalHangar.com

Do you have a better or more recent aerial photo of Honey Acres Airport that you would like to share? If so, please send us your photo.

 
Sectional chart

 
Airport distance calculator
Flying to Honey Acres Airport? Find the distance to fly.

From to 7N4

Sunrise and sunset
Times for 20-Feb-2018
 Local
(UTC-5)
 Zulu
(UTC)
Morning civil twilight06:5811:58
Sunrise07:2612:26
Sunset18:1423:14
Evening civil twilight18:4223:42

Current date and time
Zulu (UTC)  21-Feb-2018 00:51:35
Local (UTC-5)  20-Feb-2018 19:51:35
 
METAR
KADG 
13nm S 
202353Z AUTO 21014KT 10SM BKN065 BKN095 18/13 A2997 RMK AO2 SLP150 60030 T01780133 10178 20150 58006 TSNO
KARB 
14nm NE 
734-668-7173
202353Z 16005KT 10SM OVC070 16/15 A2996 RMK AO2 SLP146 60024 T01560150 10161 20144 58005
KYIP 
22nm NE 
202353Z 16008KT 10SM FEW065 SCT080 15/13 A2996 RMK AO2 SLP145 60026 T01500133 10167 20144 58007
KJXN 
24nm NW 
210031Z 27008KT 4SM RA BR FEW013 BKN037 OVC050 14/13 A3001 RMK AO2 WSHFT 0002 P0022 T01390128 $
KDUH 
26nm SE 
210035Z AUTO 20010KT 10SM CLR 19/13 A2998 RMK AO2 T01930133
TAF
KYIP 
22nm NE 
202051Z 2021/2118 21014G20KT 6SM -SHRA BR FEW018 SCT050 OVC100 FM210600 27010KT 4SM -RA BR OVC015 FM211400 31010KT 6SM BR BKN015 OVC025
KJXN 
24nm NW 
201741Z 2018/2118 20014KT 4SM -RA BR OVC012 TEMPO 2018/2022 2SM RA BR OVC008 FM202200 20011KT 2SM RA BR OVC012 FM210500 27010KT 2SM RA BR OVC006 FM211300 32011KT P6SM OVC015 FM211600 32011KT P6SM SCT025 BKN040
NOTAMs
Click for the latest NOTAMs
NOTAMs are issued by the DoD/FAA and will open in a separate window not controlled by AirNav.

 

 
 

Where to Eat: Catering, Restaurants, Food shops

  
 Business Name 
 
 Contact 
 
 Services / Description 
 
Distance
 
Comments
  
Race Track Inn 517-456-7768
no information available

If you are affiliated with Race Track Inn and would like to show here your services, contact info, web link, logo, and more, click here
0.2 miles  
   write
McDonald's 517-456-8700
no information available

If you are affiliated with McDonald's and would like to show here your services, contact info, web link, logo, and more, click here
0.4 miles  
   write
 

Would you like to see your business listed on this page?

 If your business provides an interesting product or service to pilots, flight crews, aircraft, or users of the Honey Acres Airport, you should consider listing it here.  To start the listing process, click on the button below
 
Add a business
 

Other Pages about Honey Acres Airport

Page from the Michigan Airport Directory (PDF)
 
Update a link
 
Copyright © AirNav, LLC. All rights reserved. Privacy Policy  Contact